Time;durP1;ratioP1;P1;durP2;ratioP2;P2;SDS_P1;SDS_P2;PMS_P1;PMS_P2;Temp;Humidity;BMP_temperature;BMP_pressure;BME280_temperature;BME280_humidity;BME280_pressure;Samples;Min_cycle;Max_cycle;Signal;HPM_P1;HPM_P2
2024/01/28 00:00:16;;;;;;;14.30;4.50;;;1.60;99.90;;;;;;5093190;28;20552;-43
2024/01/28 00:02:42;;;;;;;15.23;4.43;;;1.60;99.90;;;;;;5093621;28;20179;-43
2024/01/28 00:05:07;;;;;;;9.87;4.33;;;1.60;99.90;;;;;;5093730;28;20538;-43
2024/01/28 00:07:36;;;;;;;12.70;4.13;;;1.60;99.90;;;;;;5093577;28;20187;-42
2024/01/28 00:10:02;;;;;;;11.10;4.87;;;1.60;99.90;;;;;;5092377;28;20225;-44
2024/01/28 00:12:31;;;;;;;12.40;4.23;;;1.60;99.90;;;;;;5093557;28;20203;-42
2024/01/28 00:14:57;;;;;;;12.97;4.30;;;1.60;99.90;;;;;;5093892;28;20178;-44
2024/01/28 00:17:23;;;;;;;10.37;4.40;;;1.60;99.90;;;;;;5092257;28;20230;-42
2024/01/28 00:19:51;;;;;;;10.93;3.83;;;1.50;99.90;;;;;;5093417;28;20539;-40
2024/01/28 00:22:19;;;;;;;10.60;3.50;;;1.50;99.90;;;;;;5093463;28;20178;-43
2024/01/28 00:24:45;;;;;;;12.67;3.70;;;1.50;99.90;;;;;;5093717;28;20179;-44
2024/01/28 00:27:11;;;;;;;14.73;4.30;;;1.50;99.90;;;;;;5093427;28;20259;-41
2024/01/28 00:29:39;;;;;;;12.00;4.23;;;1.50;99.90;;;;;;5093429;28;20255;-43
2024/01/28 00:32:05;;;;;;;8.77;3.80;;;1.50;99.90;;;;;;5093971;28;20265;-42
2024/01/28 00:34:32;;;;;;;11.37;3.63;;;1.50;99.90;;;;;;5093291;28;20191;-43
2024/01/28 00:36:58;;;;;;;11.87;3.60;;;1.50;99.90;;;;;;5093587;28;20221;-43
2024/01/28 00:39:24;;;;;;;12.50;4.30;;;1.50;99.90;;;;;;5093555;28;20182;-42
2024/01/28 00:41:50;;;;;;;8.47;3.90;;;1.50;99.90;;;;;;5092403;28;20183;-44
2024/01/28 00:44:16;;;;;;;13.77;4.17;;;1.50;99.90;;;;;;5092113;28;20604;-41
2024/01/28 00:46:44;;;;;;;12.20;4.23;;;1.50;99.90;;;;;;5093434;28;20202;-41
2024/01/28 00:49:13;;;;;;;10.97;3.67;;;1.50;99.90;;;;;;5093478;28;20236;-42
2024/01/28 00:51:45;;;;;;;8.13;3.97;;;1.50;99.90;;;;;;5093150;28;20186;-41
2024/01/28 00:54:11;;;;;;;11.17;4.53;;;1.40;99.90;;;;;;5093724;28;20183;-42
2024/01/28 00:56:37;;;;;;;11.17;4.13;;;1.40;99.90;;;;;;5093561;28;20571;-41
2024/01/28 00:59:02;;;;;;;8.10;3.80;;;1.40;99.90;;;;;;5093655;28;20591;-42
2024/01/28 01:01:28;;;;;;;16.40;4.63;;;1.40;99.90;;;;;;5091876;28;20175;-41
2024/01/28 01:03:57;;;;;;;12.07;4.97;;;1.30;99.90;;;;;;5093059;28;20607;-41
2024/01/28 01:06:23;;;;;;;9.97;4.83;;;1.30;99.90;;;;;;5092977;28;20195;-42
2024/01/28 01:08:49;;;;;;;12.27;4.73;;;1.30;99.90;;;;;;5092989;28;20234;-42
2024/01/28 01:11:15;;;;;;;12.10;4.33;;;1.30;99.90;;;;;;5093637;28;20228;-42
2024/01/28 01:13:41;;;;;;;8.50;3.80;;;1.30;99.90;;;;;;5095718;28;20183;-40
2024/01/28 01:16:06;;;;;;;14.27;4.83;;;1.20;99.90;;;;;;5096482;28;20225;-44
2024/01/28 01:18:35;;;;;;;17.77;5.17;;;1.20;99.90;;;;;;5097094;28;20195;-43
2024/01/28 01:21:00;;;;;;;16.27;4.80;;;1.20;99.90;;;;;;5096611;28;20175;-41
2024/01/28 01:23:26;;;;;;;14.77;5.37;;;1.20;99.90;;;;;;5096954;28;20189;-40
2024/01/28 01:25:54;;;;;;;13.07;4.27;;;1.20;99.90;;;;;;5095690;28;20295;-43
2024/01/28 01:28:31;;;;;;;12.10;4.57;;;1.10;99.90;;;;;;5096724;28;20184;-43
2024/01/28 01:30:59;;;;;;;12.67;4.70;;;1.10;99.90;;;;;;5096849;28;20155;-43
2024/01/28 01:33:25;;;;;;;8.13;4.30;;;1.10;99.90;;;;;;5096493;28;20201;-43
2024/01/28 01:35:51;;;;;;;12.97;4.40;;;1.10;99.90;;;;;;5096397;28;20581;-41
2024/01/28 01:38:16;;;;;;;10.20;4.30;;;1.10;99.90;;;;;;5096914;28;20562;-42
2024/01/28 01:40:42;;;;;;;15.03;4.77;;;1.10;99.90;;;;;;5095088;28;20266;-44
2024/01/28 01:43:13;;;;;;;10.47;4.73;;;1.10;99.90;;;;;;5096588;28;20202;-41
2024/01/28 01:45:42;;;;;;;9.17;4.73;;;1.10;99.90;;;;;;5095143;28;20206;-41
2024/01/28 01:48:10;;;;;;;12.57;4.93;;;1.00;99.90;;;;;;5096513;28;20224;-42
2024/01/28 01:50:36;;;;;;;19.13;4.83;;;1.00;99.90;;;;;;5096161;28;20224;-43
2024/01/28 01:53:04;;;;;;;11.00;4.47;;;1.00;99.90;;;;;;5096067;28;20183;-42
2024/01/28 01:55:34;;;;;;;10.33;4.20;;;1.00;99.90;;;;;;5094987;28;20202;-42
2024/01/28 01:58:07;;;;;;;13.90;4.70;;;1.00;99.90;;;;;;5096239;28;20654;-43
2024/01/28 02:00:34;;;;;;;10.67;4.33;;;1.00;99.90;;;;;;5096362;28;20548;-42
2024/01/28 02:03:03;;;;;;;13.70;4.83;;;1.00;99.90;;;;;;5095918;28;20171;-43
2024/01/28 02:05:29;;;;;;;15.47;4.93;;;1.00;99.90;;;;;;5095996;28;20170;-42
2024/01/28 02:07:54;;;;;;;10.30;3.83;;;1.00;99.90;;;;;;5096161;28;20178;-42
2024/01/28 02:10:22;;;;;;;14.00;4.77;;;1.00;99.90;;;;;;5095945;28;20175;-43
2024/01/28 02:12:50;;;;;;;14.23;4.50;;;0.90;99.90;;;;;;5095720;28;20170;-40
2024/01/28 02:15:17;;;;;;;14.77;4.90;;;0.90;99.90;;;;;;5095896;28;20155;-41
2024/01/28 02:17:44;;;;;;;14.30;5.23;;;0.90;99.90;;;;;;5095946;28;20171;-41
2024/01/28 02:20:11;;;;;;;10.93;4.50;;;0.90;99.90;;;;;;5095911;28;20270;-41
2024/01/28 02:22:36;;;;;;;11.70;3.90;;;0.80;99.90;;;;;;5095524;28;20167;-43
2024/01/28 02:25:06;;;;;;;7.33;3.30;;;0.80;99.90;;;;;;5095780;28;20184;-41
2024/01/28 02:27:39;;;;;;;12.13;4.47;;;0.90;99.90;;;;;;5095781;28;20199;-41
2024/01/28 02:30:06;;;;;;;9.80;4.10;;;0.90;99.90;;;;;;5096125;28;20198;-43
2024/01/28 02:32:34;;;;;;;9.17;4.10;;;0.90;99.90;;;;;;5095296;28;20198;-43
2024/01/28 02:35:01;;;;;;;13.03;3.93;;;0.90;99.90;;;;;;5095111;28;20572;-43
2024/01/28 02:37:27;;;;;;;9.53;4.17;;;0.90;99.90;;;;;;5095337;28;20225;-41
2024/01/28 02:40:03;;;;;;;6.93;4.20;;;0.90;99.90;;;;;;5096015;28;20173;-42
2024/01/28 02:42:28;;;;;;;11.13;3.90;;;0.90;99.90;;;;;;5095461;28;20546;-42
2024/01/28 02:44:54;;;;;;;7.73;3.10;;;0.90;99.90;;;;;;5095121;28;20178;-41
2024/01/28 02:47:20;;;;;;;4.97;2.83;;;0.90;99.90;;;;;;5095286;28;20206;-42
2024/01/28 02:49:51;;;;;;;6.67;2.90;;;0.90;99.90;;;;;;5094982;28;20224;-41
2024/01/28 02:52:20;;;;;;;11.13;3.40;;;1.00;99.90;;;;;;5094950;28;20600;-41
2024/01/28 02:54:46;;;;;;;9.43;3.73;;;1.00;99.90;;;;;;5094921;28;20657;-42
2024/01/28 02:57:15;;;;;;;11.40;4.00;;;1.00;99.90;;;;;;5095064;28;20285;-43
2024/01/28 02:59:40;;;;;;;10.50;3.40;;;0.90;99.90;;;;;;5095433;28;20171;-42
2024/01/28 03:02:06;;;;;;;10.97;4.17;;;1.00;99.90;;;;;;5095613;28;20182;-39
2024/01/28 03:04:37;;;;;;;9.70;3.50;;;1.00;99.90;;;;;;5094727;28;20213;-40
2024/01/28 03:07:04;;;;;;;6.60;3.37;;;0.90;99.90;;;;;;5094951;28;20259;-43
2024/01/28 03:09:29;;;;;;;8.40;3.10;;;0.90;99.90;;;;;;5093721;28;20233;-40
2024/01/28 03:11:56;;;;;;;9.07;3.00;;;0.90;99.90;;;;;;5094572;28;20541;-44
2024/01/28 03:14:22;;;;;;;7.63;3.10;;;0.90;99.90;;;;;;5094767;28;20183;-43
2024/01/28 03:16:48;;;;;;;2.80;2.13;;;1.00;99.90;;;;;;5094485;28;20582;-42
2024/01/28 03:19:15;;;;;;;12.77;3.60;;;1.00;99.90;;;;;;5094787;28;20182;-43
2024/01/28 03:21:46;;;;;;;7.43;3.17;;;1.00;99.90;;;;;;5094382;28;20178;-43
2024/01/28 03:24:12;;;;;;;5.37;3.00;;;1.00;99.90;;;;;;5094664;28;20174;-40
2024/01/28 03:26:39;;;;;;;8.80;2.63;;;1.00;99.90;;;;;;5094277;28;20197;-43
2024/01/28 03:29:05;;;;;;;11.07;3.73;;;1.00;99.90;;;;;;5094303;28;20254;-45
2024/01/28 03:31:31;;;;;;;11.20;2.90;;;1.00;99.90;;;;;;5094584;28;20206;-42
2024/01/28 03:33:59;;;;;;;6.90;3.30;;;1.00;99.90;;;;;;5092443;28;20197;-41
2024/01/28 03:36:25;;;;;;;6.97;2.97;;;1.00;99.90;;;;;;5093970;28;20277;-42
2024/01/28 03:38:53;;;;;;;7.23;3.03;;;1.00;99.90;;;;;;5093241;28;20262;-41
2024/01/28 03:41:19;;;;;;;9.13;3.60;;;1.00;99.90;;;;;;5094171;28;20258;-43
2024/01/28 03:43:46;;;;;;;8.10;3.73;;;1.00;99.90;;;;;;5094106;28;20670;-41
2024/01/28 03:46:12;;;;;;;9.23;3.60;;;1.00;99.90;;;;;;5093072;28;20256;-43
2024/01/28 03:48:40;;;;;;;5.80;3.60;;;1.00;99.90;;;;;;5093100;28;20284;-41
2024/01/28 03:51:06;;;;;;;13.67;4.00;;;0.90;99.90;;;;;;5093876;28;20225;-44
2024/01/28 03:53:32;;;;;;;9.20;3.57;;;0.90;99.90;;;;;;5093897;28;20199;-42
2024/01/28 03:55:58;;;;;;;7.23;3.20;;;0.80;99.90;;;;;;5093564;28;20215;-43
2024/01/28 03:58:24;;;;;;;5.83;3.40;;;0.80;99.90;;;;;;5093869;28;20261;-41
2024/01/28 04:00:59;;;;;;;11.43;3.60;;;0.80;99.90;;;;;;5093815;28;20205;-42
2024/01/28 04:03:26;;;;;;;10.07;3.90;;;0.70;99.90;;;;;;5093731;28;20171;-42
2024/01/28 04:05:51;;;;;;;10.40;3.90;;;0.70;99.90;;;;;;5092475;28;20265;-41
2024/01/28 04:08:17;;;;;;;8.40;3.77;;;0.70;99.90;;;;;;5092366;28;20189;-43
2024/01/28 04:10:43;;;;;;;11.67;3.80;;;0.70;99.90;;;;;;5093674;28;20254;-44
2024/01/28 04:13:09;;;;;;;8.93;3.43;;;0.70;99.90;;;;;;5093711;28;20569;-42
2024/01/28 04:15:37;;;;;;;10.63;3.70;;;0.60;99.90;;;;;;5093491;28;20282;-43
2024/01/28 04:18:05;;;;;;;12.67;4.23;;;0.60;99.90;;;;;;5093596;28;20653;-41
2024/01/28 04:20:32;;;;;;;11.67;4.03;;;0.70;99.90;;;;;;5092662;28;20427;-42
2024/01/28 04:22:58;;;;;;;8.50;3.33;;;0.70;99.90;;;;;;5093771;28;20201;-43
2024/01/28 04:25:24;;;;;;;10.00;3.47;;;0.60;99.90;;;;;;5093412;28;20202;-41
2024/01/28 04:27:50;;;;;;;9.33;4.23;;;0.60;99.90;;;;;;5093437;28;20655;-41
2024/01/28 04:30:21;;;;;;;7.87;3.43;;;0.60;99.90;;;;;;5093640;28;20190;-42
2024/01/28 04:32:47;;;;;;;12.20;4.00;;;0.60;99.90;;;;;;5093409;28;20205;-41
2024/01/28 04:35:13;;;;;;;6.17;2.30;;;0.70;99.90;;;;;;5093506;28;20522;-43
2024/01/28 04:37:42;;;;;;;10.00;3.73;;;0.70;99.90;;;;;;5091987;28;20210;-41
2024/01/28 04:40:08;;;;;;;9.07;3.60;;;0.70;99.90;;;;;;5093565;28;20174;-42
2024/01/28 04:42:37;;;;;;;9.00;4.00;;;0.70;99.90;;;;;;5092507;28;20167;-39
2024/01/28 04:45:03;;;;;;;10.10;3.43;;;0.70;99.90;;;;;;5092427;28;20189;-42
2024/01/28 04:47:28;;;;;;;11.13;4.20;;;0.70;99.90;;;;;;5094858;28;20672;-45
2024/01/28 04:49:54;;;;;;;8.37;3.57;;;0.70;99.90;;;;;;5097348;28;20214;-42
2024/01/28 04:52:21;;;;;;;11.70;4.53;;;0.70;99.90;;;;;;5098161;28;20187;-42
2024/01/28 04:54:47;;;;;;;12.77;4.40;;;0.70;99.90;;;;;;5097107;28;20219;-42
2024/01/28 04:57:15;;;;;;;9.87;3.10;;;0.70;99.90;;;;;;5096122;28;20243;-43
2024/01/28 04:59:41;;;;;;;7.67;4.03;;;0.60;99.90;;;;;;5097433;28;20223;-42
2024/01/28 05:02:09;;;;;;;12.33;4.10;;;0.60;99.90;;;;;;5097154;28;20583;-42
2024/01/28 05:04:34;;;;;;;10.83;4.20;;;0.60;99.90;;;;;;5097057;28;20196;-43
2024/01/28 05:07:00;;;;;;;14.47;4.43;;;0.60;99.90;;;;;;5097258;28;20656;-41
2024/01/28 05:09:26;;;;;;;8.77;3.73;;;0.60;99.90;;;;;;5097557;28;20190;-41
2024/01/28 05:11:55;;;;;;;10.33;3.73;;;0.50;99.90;;;;;;5096873;28;20241;-43
2024/01/28 05:14:22;;;;;;;9.40;3.57;;;0.50;99.90;;;;;;5097296;28;20440;-46
2024/01/28 05:16:49;;;;;;;12.80;4.07;;;0.50;99.90;;;;;;5096719;28;20693;-41
2024/01/28 05:19:14;;;;;;;9.23;3.63;;;0.50;99.90;;;;;;5096804;28;20419;-41
2024/01/28 05:21:40;;;;;;;14.53;3.57;;;0.50;99.90;;;;;;5096738;28;20189;-41
2024/01/28 05:24:06;;;;;;;10.17;3.77;;;0.50;99.90;;;;;;5096654;28;20542;-42
2024/01/28 05:26:37;;;;;;;8.63;3.77;;;0.50;99.90;;;;;;5096772;28;20407;-42
2024/01/28 05:29:06;;;;;;;7.63;3.23;;;0.50;99.90;;;;;;5096939;28;20194;-41
2024/01/28 05:31:32;;;;;;;11.70;3.47;;;0.50;99.90;;;;;;5096632;28;20415;-43
2024/01/28 05:34:00;;;;;;;11.77;3.50;;;0.50;99.90;;;;;;5095422;28;20202;-42
2024/01/28 05:36:25;;;;;;;11.87;3.13;;;0.60;99.90;;;;;;5096408;28;20202;-43
2024/01/28 05:38:54;;;;;;;9.87;3.27;;;0.60;99.90;;;;;;5096547;28;20202;-41
2024/01/28 05:41:20;;;;;;;12.43;3.73;;;0.60;99.90;;;;;;5095703;28;20579;-41
2024/01/28 05:43:46;;;;;;;12.27;3.33;;;0.60;99.90;;;;;;5096250;28;20414;-42
2024/01/28 05:46:12;;;;;;;10.67;3.50;;;0.60;99.90;;;;;;5096209;28;20940;-41
2024/01/28 05:48:37;;;;;;;9.67;3.30;;;0.60;99.90;;;;;;5096246;28;20186;-41
2024/01/28 05:51:03;;;;;;;10.93;3.40;;;0.60;99.90;;;;;;5096209;28;20183;-42
2024/01/28 05:53:32;;;;;;;10.23;3.77;;;0.60;99.90;;;;;;5094943;28;20195;-41
2024/01/28 05:55:57;;;;;;;11.20;3.70;;;0.60;99.90;;;;;;5095971;28;20221;-43
2024/01/28 05:58:24;;;;;;;13.57;3.77;;;0.60;99.90;;;;;;5095650;28;20180;-43
2024/01/28 06:00:50;;;;;;;8.97;3.33;;;0.60;99.90;;;;;;5096127;28;20717;-42
2024/01/28 06:03:15;;;;;;;8.90;3.43;;;0.60;99.90;;;;;;5095951;28;20497;-43
2024/01/28 06:05:41;;;;;;;9.67;3.70;;;0.60;99.90;;;;;;5096015;28;20263;-43
2024/01/28 06:08:07;;;;;;;10.10;3.53;;;0.60;99.90;;;;;;5096116;28;20189;-43
2024/01/28 06:10:36;;;;;;;8.03;2.77;;;0.60;99.90;;;;;;5095890;28;20177;-42
2024/01/28 06:13:01;;;;;;;7.00;3.37;;;0.60;99.90;;;;;;5095974;28;20177;-42
2024/01/28 06:15:27;;;;;;;13.07;3.40;;;0.60;99.90;;;;;;5096019;28;20174;-43
2024/01/28 06:17:53;;;;;;;9.33;3.50;;;0.60;99.90;;;;;;5095717;28;20697;-42
2024/01/28 06:20:22;;;;;;;9.93;3.60;;;0.60;99.90;;;;;;5094479;28;20190;-42
2024/01/28 06:22:47;;;;;;;11.07;3.50;;;0.70;99.90;;;;;;5095549;28;20277;-41
2024/01/28 06:25:13;;;;;;;10.70;3.47;;;0.60;99.90;;;;;;5096027;28;20341;-41
2024/01/28 06:27:42;;;;;;;11.17;3.67;;;0.60;99.90;;;;;;5095794;28;20251;-40
2024/01/28 06:30:08;;;;;;;5.37;2.80;;;0.60;99.90;;;;;;5095845;28;20182;-41
2024/01/28 06:33:17;;;;;;;7.47;3.30;;;0.60;99.90;;;;;;5095248;28;20204;-40
2024/01/28 06:35:43;;;;;;;8.77;3.10;;;0.60;99.90;;;;;;5095002;28;20312;-41
2024/01/28 06:38:09;;;;;;;8.63;3.37;;;0.60;99.90;;;;;;5095367;28;20260;-39
2024/01/28 06:40:34;;;;;;;8.57;2.73;;;0.70;99.90;;;;;;5095778;28;20180;-41
2024/01/28 06:43:00;;;;;;;9.53;2.77;;;0.70;99.90;;;;;;5095247;28;20704;-39
2024/01/28 06:45:26;;;;;;;10.17;3.23;;;0.70;99.90;;;;;;5095391;28;20190;-43
2024/01/28 06:47:52;;;;;;;8.40;4.00;;;0.70;99.90;;;;;;5095086;28;20205;-41
2024/01/28 06:50:19;;;;;;;6.63;3.17;;;0.80;99.90;;;;;;5095020;28;20199;-42
2024/01/28 06:52:44;;;;;;;9.77;3.07;;;0.70;99.90;;;;;;5095080;28;20401;-41
2024/01/28 06:55:10;;;;;;;8.73;3.37;;;0.80;99.90;;;;;;5095023;28;20498;-41
2024/01/28 06:57:37;;;;;;;6.23;3.37;;;0.70;99.90;;;;;;5094793;28;20261;-40
2024/01/28 07:00:16;;;;;;;7.63;3.47;;;0.80;99.90;;;;;;5094589;28;20193;-41
2024/01/28 07:02:41;;;;;;;8.43;3.50;;;0.80;99.90;;;;;;5094820;28;20423;-41
2024/01/28 07:05:11;;;;;;;8.83;3.27;;;0.70;99.90;;;;;;5094969;28;20765;-42
2024/01/28 07:07:38;;;;;;;7.63;3.60;;;0.70;99.90;;;;;;5093610;28;20568;-41
2024/01/28 07:10:05;;;;;;;8.30;3.33;;;0.70;99.90;;;;;;5094142;28;20256;-42
2024/01/28 07:12:30;;;;;;;9.57;3.70;;;0.60;99.90;;;;;;5093389;28;20533;-40
2024/01/28 07:14:56;;;;;;;11.03;3.87;;;0.60;99.90;;;;;;5091194;28;20192;-43
2024/01/28 07:17:24;;;;;;;8.33;3.23;;;0.60;99.90;;;;;;5094655;28;20296;-41
2024/01/28 07:19:50;;;;;;;8.93;3.60;;;0.60;99.90;;;;;;5094446;28;20172;-42
2024/01/28 07:22:16;;;;;;;10.40;4.03;;;0.60;99.90;;;;;;5094438;28;20188;-40
2024/01/28 07:24:41;;;;;;;11.10;3.97;;;0.60;99.90;;;;;;5093857;28;20172;-42
2024/01/28 07:27:07;;;;;;;6.33;2.83;;;0.60;99.90;;;;;;5094358;28;20202;-41
2024/01/28 07:29:32;;;;;;;7.80;2.60;;;0.60;99.90;;;;;;5094762;28;20177;-41
2024/01/28 07:31:58;;;;;;;3.50;1.60;;;0.70;99.90;;;;;;5093520;28;20673;-41
2024/01/28 07:34:23;;;;;;;8.77;3.53;;;0.70;99.90;;;;;;5094028;28;20279;-43
2024/01/28 07:36:51;;;;;;;5.67;2.67;;;0.70;99.90;;;;;;5094410;28;20569;-43
2024/01/28 07:39:16;;;;;;;4.10;2.13;;;0.70;99.90;;;;;;5094478;28;20193;-41
2024/01/28 07:41:42;;;;;;;10.77;2.97;;;0.80;99.90;;;;;;5094152;28;20177;-39
2024/01/28 07:44:08;;;;;;;7.27;1.97;;;0.80;99.90;;;;;;5092864;28;20207;-40
2024/01/28 07:46:34;;;;;;;9.00;3.60;;;0.90;99.90;;;;;;5094492;28;20213;-41
2024/01/28 07:48:59;;;;;;;4.47;2.23;;;0.90;99.90;;;;;;5094377;28;20415;-43
2024/01/28 07:51:25;;;;;;;4.73;2.20;;;1.00;99.90;;;;;;5093998;28;20591;-43
2024/01/28 07:53:51;;;;;;;7.93;3.40;;;1.10;99.90;;;;;;5094278;28;20205;-42
2024/01/28 07:56:23;;;;;;;5.53;2.57;;;1.10;99.90;;;;;;5094016;28;20213;-42
2024/01/28 07:58:53;;;;;;;7.43;3.60;;;1.10;99.90;;;;;;5094067;28;20174;-44
2024/01/28 08:01:18;;;;;;;9.77;2.77;;;1.20;99.90;;;;;;5092719;28;20228;-42
2024/01/28 08:03:47;;;;;;;9.90;3.33;;;1.20;99.90;;;;;;5093734;28;20185;-41
2024/01/28 08:06:12;;;;;;;7.90;3.13;;;1.20;99.90;;;;;;5093953;28;20205;-41
2024/01/28 08:08:38;;;;;;;10.87;3.30;;;1.20;99.90;;;;;;5093789;28;20518;-40
2024/01/28 08:11:03;;;;;;;10.23;3.57;;;1.20;99.90;;;;;;5094131;28;20189;-43
2024/01/28 08:13:29;;;;;;;10.00;3.53;;;1.20;99.90;;;;;;5093836;28;20177;-42
2024/01/28 08:16:01;;;;;;;8.47;3.20;;;1.20;99.90;;;;;;5093728;28;20293;-40
2024/01/28 08:18:27;;;;;;;8.97;2.97;;;1.20;99.90;;;;;;5092717;28;20167;-40
2024/01/28 08:20:53;;;;;;;6.90;3.37;;;1.20;99.90;;;;;;5092177;28;20189;-41
2024/01/28 08:23:18;;;;;;;10.40;4.17;;;1.30;99.90;;;;;;5092424;28;20186;-40
2024/01/28 08:25:50;;;;;;;7.47;3.47;;;1.30;99.90;;;;;;5093475;28;20208;-43
2024/01/28 08:28:16;;;;;;;8.77;3.73;;;1.40;99.90;;;;;;5093558;28;20226;-42
2024/01/28 08:30:41;;;;;;;8.87;3.90;;;1.40;99.90;;;;;;5093585;28;20182;-41
2024/01/28 08:33:07;;;;;;;12.67;3.37;;;1.40;99.90;;;;;;5093586;28;20175;-41
2024/01/28 08:35:32;;;;;;;10.67;3.60;;;1.40;99.90;;;;;;5093041;28;20592;-41
2024/01/28 08:37:58;;;;;;;7.60;3.63;;;1.40;99.90;;;;;;5093487;28;20189;-41
2024/01/28 08:40:24;;;;;;;8.17;3.73;;;1.50;99.90;;;;;;5093071;28;20188;-41
2024/01/28 08:42:51;;;;;;;7.37;4.03;;;1.50;99.90;;;;;;5093534;28;20181;-40
2024/01/28 08:45:16;;;;;;;12.97;4.37;;;1.50;99.90;;;;;;5092232;28;20189;-42
2024/01/28 08:47:42;;;;;;;11.53;4.23;;;1.60;99.90;;;;;;5093508;28;20273;-43
2024/01/28 08:50:09;;;;;;;10.47;4.03;;;1.60;99.90;;;;;;5091859;28;20557;-40
2024/01/28 08:52:34;;;;;;;6.83;3.60;;;1.60;99.90;;;;;;5093430;28;20178;-40
2024/01/28 08:55:09;;;;;;;6.43;2.50;;;1.70;99.90;;;;;;5091869;28;20254;-41
2024/01/28 08:57:35;;;;;;;8.83;3.43;;;1.70;99.90;;;;;;5092966;28;20685;-43
2024/01/28 09:00:04;;;;;;;5.73;2.50;;;1.80;99.90;;;;;;5093267;28;20183;-41
2024/01/28 09:02:35;;;;;;;8.13;3.57;;;1.90;99.90;;;;;;5093398;28;20182;-42
2024/01/28 09:05:02;;;;;;;6.90;3.30;;;2.00;99.90;;;;;;5093681;28;20242;-42
2024/01/28 09:07:28;;;;;;;8.27;3.40;;;2.00;99.90;;;;;;5092033;28;20297;-41
2024/01/28 09:09:53;;;;;;;11.57;3.83;;;2.10;99.90;;;;;;5091793;28;20188;-42
2024/01/28 09:12:20;;;;;;;7.97;3.73;;;2.20;99.90;;;;;;5092976;28;20185;-41
2024/01/28 09:14:45;;;;;;;9.23;3.80;;;2.20;99.90;;;;;;5093033;28;20209;-41
2024/01/28 09:17:11;;;;;;;8.17;3.67;;;2.30;99.90;;;;;;5092205;28;20254;-41
2024/01/28 09:19:49;;;;;;;9.30;4.17;;;2.40;99.90;;;;;;5092971;28;20700;-43
2024/01/28 09:22:14;;;;;;;6.37;2.40;;;2.40;99.90;;;;;;5092058;28;20194;-42
2024/01/28 09:24:40;;;;;;;8.67;3.40;;;2.50;99.90;;;;;;5091960;28;20241;-41
2024/01/28 09:27:06;;;;;;;6.63;3.73;;;2.60;99.90;;;;;;5092931;28;20555;-41
2024/01/28 09:29:31;;;;;;;8.97;4.00;;;2.60;99.90;;;;;;5092955;28;20179;-40
2024/01/28 09:31:59;;;;;;;10.20;2.90;;;2.70;99.90;;;;;;5093008;28;20183;-42
2024/01/28 09:34:24;;;;;;;7.83;3.40;;;2.80;99.90;;;;;;5096565;28;20198;-42
2024/01/28 09:36:56;;;;;;;5.80;3.33;;;2.80;99.90;;;;;;5096786;28;20411;-41
2024/01/28 09:39:22;;;;;;;5.77;3.33;;;2.90;99.90;;;;;;5096698;28;20175;-42
2024/01/28 09:42:04;;;;;;;14.70;2.60;;;3.00;99.90;;;;;;5096520;28;20261;-43
2024/01/28 09:44:30;;;;;;;9.17;3.67;;;3.10;99.90;;;;;;5096387;28;20250;-43
2024/01/28 09:46:58;;;;;;;8.33;4.10;;;3.20;99.90;;;;;;5096238;28;20331;-41
2024/01/28 09:49:25;;;;;;;6.43;3.17;;;3.20;99.90;;;;;;5096255;28;20187;-42
2024/01/28 09:51:52;;;;;;;4.00;2.33;;;3.30;99.90;;;;;;5096262;28;20179;-43
2024/01/28 09:54:18;;;;;;;11.80;3.43;;;3.40;99.90;;;;;;5096419;28;20206;-41
2024/01/28 09:56:45;;;;;;;11.07;4.10;;;3.50;99.90;;;;;;5096463;28;20214;-43
2024/01/28 09:59:13;;;;;;;9.67;4.23;;;3.50;99.90;;;;;;5096123;28;20669;-42
2024/01/28 10:01:42;;;;;;;7.43;3.40;;;3.60;99.90;;;;;;5096071;28;20203;-43
2024/01/28 10:04:12;;;;;;;11.37;3.67;;;3.70;99.90;;;;;;5096027;28;20726;-43
2024/01/28 10:06:37;;;;;;;6.50;3.90;;;3.70;99.90;;;;;;5095900;28;20568;-40
2024/01/28 10:09:03;;;;;;;14.40;3.87;;;3.80;99.90;;;;;;5096256;28;20171;-39
2024/01/28 10:11:28;;;;;;;10.00;4.00;;;3.90;99.90;;;;;;5095856;28;20175;-41
2024/01/28 10:13:57;;;;;;;6.57;3.47;;;3.90;99.90;;;;;;5096160;28;20274;-41
2024/01/28 10:16:29;;;;;;;15.13;4.80;;;4.10;99.90;;;;;;5094387;28;20210;-41
2024/01/28 10:18:55;;;;;;;7.00;4.23;;;4.10;99.90;;;;;;5095762;28;20487;-43
2024/01/28 10:21:21;;;;;;;11.93;4.53;;;4.20;99.90;;;;;;5095973;28;20179;-40
2024/01/28 10:23:46;;;;;;;6.00;3.67;;;4.20;99.90;;;;;;5095590;28;20635;-42
2024/01/28 10:26:12;;;;;;;6.90;3.00;;;4.30;99.90;;;;;;5095818;28;20200;-43
2024/01/28 10:28:41;;;;;;;13.27;4.90;;;4.40;99.90;;;;;;5095488;28;20639;-41
2024/01/28 10:31:13;;;;;;;11.83;4.30;;;4.40;99.90;;;;;;5094407;28;20665;-42
2024/01/28 10:33:42;;;;;;;8.07;4.17;;;4.50;99.90;;;;;;5094688;28;20260;-41
2024/01/28 10:36:09;;;;;;;8.93;4.13;;;4.60;99.90;;;;;;5094975;28;20310;-41
2024/01/28 10:38:37;;;;;;;15.40;4.17;;;4.60;99.90;;;;;;5095272;28;20225;-43
2024/01/28 10:41:17;;;;;;;7.43;4.07;;;4.70;99.90;;;;;;5094721;28;20200;-43
2024/01/28 10:43:51;;;;;;;7.67;3.43;;;4.80;99.90;;;;;;5094085;28;20168;-43
2024/01/28 10:46:24;;;;;;;10.17;4.20;;;4.90;99.90;;;;;;5095269;28;20204;-39
2024/01/28 10:48:53;;;;;;;11.10;3.60;;;5.00;99.90;;;;;;5095457;28;20270;-43
2024/01/28 10:51:25;;;;;;;4.57;2.83;;;5.10;99.90;;;;;;5095122;28;20173;-40
2024/01/28 10:53:55;;;;;;;9.20;3.90;;;5.10;99.90;;;;;;5094901;28;20182;-40
2024/01/28 10:56:21;;;;;;;10.93;4.03;;;5.20;99.90;;;;;;5095080;28;20202;-42
2024/01/28 10:58:48;;;;;;;11.93;3.53;;;5.30;99.90;;;;;;5094894;28;20180;-40
2024/01/28 11:01:14;;;;;;;11.38;4.35;;;5.40;99.90;;;;;;5094500;28;20891;-42
2024/01/28 11:03:40;;;;;;;9.87;5.30;;;5.50;99.90;;;;;;5095021;28;20182;-40
2024/01/28 11:06:10;;;;;;;6.37;3.60;;;5.60;99.90;;;;;;5094691;28;20199;-42
2024/01/28 11:08:36;;;;;;;7.07;3.70;;;5.70;99.90;;;;;;5094662;28;20186;-40
2024/01/28 11:11:03;;;;;;;5.73;3.63;;;5.80;99.90;;;;;;5094666;28;20536;-43
2024/01/28 11:13:30;;;;;;;9.23;4.23;;;5.90;99.90;;;;;;5095131;28;20179;-43
2024/01/28 11:15:56;;;;;;;9.67;4.27;;;6.00;99.90;;;;;;5093558;28;20211;-40
2024/01/28 11:18:30;;;;;;;11.83;3.87;;;6.10;99.90;;;;;;5094796;28;20212;-41
2024/01/28 11:21:18;;;;;;;8.73;3.80;;;6.20;99.90;;;;;;5092994;28;20186;-43
2024/01/28 11:23:46;;;;;;;10.20;4.03;;;6.30;99.90;;;;;;5094808;28;20159;-45
2024/01/28 11:26:19;;;;;;;10.00;4.10;;;6.40;99.90;;;;;;5094316;28;20223;-46
2024/01/28 11:28:49;;;;;;;7.37;3.50;;;6.50;99.90;;;;;;5094659;28;20270;-47
2024/01/28 11:31:21;;;;;;;8.13;3.80;;;6.60;99.90;;;;;;5094201;28;20183;-47
2024/01/28 11:33:47;;;;;;;5.50;3.70;;;6.60;99.90;;;;;;5094620;28;20167;-46
2024/01/28 11:36:20;;;;;;;8.13;3.67;;;6.80;99.90;;;;;;5093963;28;20214;-47
2024/01/28 11:38:50;;;;;;;7.77;3.50;;;6.80;99.90;;;;;;5094491;28;20220;-46
2024/01/28 11:41:18;;;;;;;6.50;3.07;;;6.90;99.90;;;;;;5092953;28;20182;-47
2024/01/28 11:43:46;;;;;;;7.60;3.13;;;7.00;99.90;;;;;;5094073;28;20279;-48
2024/01/28 11:46:13;;;;;;;8.03;3.97;;;7.10;99.90;;;;;;5092676;28;20577;-46
2024/01/28 11:48:38;;;;;;;8.37;3.47;;;7.20;99.90;;;;;;5094254;28;20201;-48
2024/01/28 11:51:04;;;;;;;7.37;3.20;;;7.30;99.90;;;;;;5093924;28;20200;-48
2024/01/28 11:53:30;;;;;;;14.43;4.03;;;7.40;99.90;;;;;;5094190;28;20184;-48
2024/01/28 11:56:07;;;;;;;6.13;3.43;;;7.50;99.90;;;;;;5093325;28;20324;-48
2024/01/28 11:58:32;;;;;;;5.97;3.53;;;7.60;99.90;;;;;;5093902;28;20174;-48
2024/01/28 12:00:58;;;;;;;7.27;2.93;;;7.80;99.90;;;;;;5094312;28;20533;-46
2024/01/28 12:03:27;;;;;;;7.50;3.80;;;7.80;99.90;;;;;;5092765;28;20188;-47
2024/01/28 12:05:52;;;;;;;7.50;3.10;;;7.90;99.90;;;;;;5093514;28;20200;-48
2024/01/28 12:08:31;;;;;;;5.20;3.10;;;8.00;99.90;;;;;;5092562;28;20543;-47
2024/01/28 12:11:02;;;;;;;11.83;3.70;;;8.10;99.90;;;;;;5093645;28;20171;-46
2024/01/28 12:13:29;;;;;;;10.10;3.17;;;8.20;99.90;;;;;;5093596;28;20189;-46
2024/01/28 12:16:01;;;;;;;6.03;3.43;;;8.30;99.90;;;;;;5093759;28;20252;-49
2024/01/28 12:18:38;;;;;;;8.60;3.40;;;8.40;99.90;;;;;;5093547;28;20190;-49
2024/01/28 12:21:17;;;;;;;7.23;3.40;;;8.60;99.90;;;;;;5093578;28;20166;-48
2024/01/28 12:23:52;;;;;;;7.23;3.40;;;8.70;99.90;;;;;;5093432;28;20296;-47
2024/01/28 12:26:18;;;;;;;5.37;3.33;;;8.70;99.90;;;;;;5093334;28;20208;-47
2024/01/28 12:28:45;;;;;;;6.37;3.20;;;8.90;99.90;;;;;;5093520;28;20183;-47
2024/01/28 12:31:11;;;;;;;6.23;2.90;;;9.00;99.90;;;;;;5093473;28;20186;-48
2024/01/28 12:33:40;;;;;;;7.40;3.23;;;9.00;99.90;;;;;;5093658;28;20654;-47
2024/01/28 12:36:06;;;;;;;6.17;3.30;;;9.10;99.90;;;;;;5093328;28;20223;-46
2024/01/28 12:38:32;;;;;;;6.10;2.80;;;9.20;99.90;;;;;;5092094;28;20654;-47
2024/01/28 12:40:58;;;;;;;5.27;2.90;;;9.30;99.90;;;;;;5093323;28;20186;-46
2024/01/28 12:43:24;;;;;;;5.97;3.33;;;9.30;99.90;;;;;;5093508;28;20213;-46
2024/01/28 12:45:51;;;;;;;5.83;3.00;;;9.40;99.90;;;;;;5090812;28;20210;-48
2024/01/28 12:48:19;;;;;;;8.30;3.37;;;9.40;99.90;;;;;;5093294;28;20540;-47
2024/01/28 12:50:45;;;;;;;6.00;3.10;;;9.50;99.90;;;;;;5092314;28;20591;-48
2024/01/28 12:53:10;;;;;;;5.30;2.90;;;9.60;99.90;;;;;;5093190;28;20187;-48